createdAt,value
2022-09-14T00:02:59.158Z,18.60
2022-09-14T00:09:59.801Z,18.50
2022-09-14T00:17:00.237Z,18.50
2022-09-14T00:24:00.650Z,18.50
2022-09-14T00:31:04.337Z,18.60
2022-09-14T00:38:06.143Z,18.60
2022-09-14T00:45:14.633Z,18.50
2022-09-14T00:52:26.235Z,18.50
2022-09-14T00:59:29.558Z,18.60
2022-09-14T01:06:38.573Z,18.60
2022-09-14T01:13:57.731Z,18.60
2022-09-14T01:21:10.394Z,18.60
2022-09-14T01:28:19.168Z,18.60
2022-09-14T01:35:35.449Z,18.60
2022-09-14T01:42:38.248Z,18.60
2022-09-14T01:49:52.396Z,18.60
2022-09-14T01:57:18.888Z,18.60
2022-09-14T02:04:38.197Z,18.60
2022-09-14T02:11:39.330Z,18.60
2022-09-14T02:18:40.385Z,18.60
2022-09-14T02:25:43.534Z,18.50
2022-09-14T02:33:08.268Z,18.40
2022-09-14T02:40:25.649Z,18.50
2022-09-14T02:47:47.439Z,18.40
2022-09-14T02:55:09.865Z,18.40
2022-09-14T03:02:10.099Z,18.30
2022-09-14T03:09:10.284Z,18.40
2022-09-14T03:16:16.316Z,18.40
2022-09-14T03:23:16.644Z,18.40
2022-09-14T03:30:17.843Z,18.30
2022-09-14T03:37:17.859Z,18.30
2022-09-14T03:44:18.414Z,18.30
2022-09-14T03:51:19.097Z,18.30
2022-09-14T03:58:19.426Z,18.20
2022-09-14T04:05:21.914Z,18.00
2022-09-14T04:12:22.719Z,17.90
2022-09-14T04:19:22.924Z,17.70
2022-09-14T04:26:26.886Z,17.70
2022-09-14T04:33:31.047Z,17.60
2022-09-14T04:40:31.848Z,17.60
2022-09-14T04:47:32.599Z,17.60
2022-09-14T04:54:33.514Z,17.60
2022-09-14T05:01:42.092Z,17.60
2022-09-14T05:08:43.153Z,17.60
2022-09-14T05:15:43.631Z,17.60
2022-09-14T05:22:44.241Z,17.60
2022-09-14T05:29:44.596Z,17.50
2022-09-14T05:36:45.116Z,17.40
2022-09-14T05:43:46.184Z,17.40
2022-09-14T05:50:46.757Z,17.40
2022-09-14T05:57:51.190Z,17.40
2022-09-14T06:04:51.541Z,17.40
2022-09-14T06:11:51.975Z,17.30
2022-09-14T06:18:54.168Z,17.20
2022-09-14T06:25:56.872Z,17.00
2022-09-14T06:32:57.333Z,16.90
2022-09-14T06:39:57.888Z,16.90
2022-09-14T06:46:58.307Z,16.80
2022-09-14T06:54:00.156Z,16.70
2022-09-14T07:01:08.399Z,16.70
2022-09-14T07:08:12.040Z,16.60
2022-09-14T07:15:12.654Z,16.50
2022-09-14T07:22:13.281Z,16.50
2022-09-14T07:29:19.766Z,16.50
2022-09-14T07:36:20.217Z,16.50
2022-09-14T07:43:20.663Z,16.50
2022-09-14T07:50:21.245Z,16.60
2022-09-14T07:57:33.960Z,16.60
2022-09-14T08:04:42.392Z,16.60
2022-09-14T08:11:42.851Z,16.70
2022-09-14T08:18:44.636Z,16.70
2022-09-14T08:25:45.257Z,16.80
2022-09-14T08:32:45.921Z,16.80
2022-09-14T08:39:51.362Z,16.80
2022-09-14T08:46:59.375Z,16.70
2022-09-14T08:53:59.452Z,16.70
2022-09-14T09:01:38.644Z,16.70
2022-09-14T09:08:56.683Z,16.70
2022-09-14T09:16:03.566Z,16.60
2022-09-14T09:23:15.751Z,16.60
2022-09-14T09:30:17.210Z,16.60
2022-09-14T09:37:23.202Z,16.60
2022-09-14T09:44:23.765Z,16.60
2022-09-14T09:51:24.228Z,16.70
2022-09-14T09:58:29.372Z,16.70
2022-09-14T10:05:32.212Z,16.80
2022-09-14T10:12:33.925Z,16.80
2022-09-14T10:19:34.644Z,16.80
2022-09-14T10:26:36.724Z,16.80
2022-09-14T10:33:36.978Z,16.80
2022-09-14T10:40:43.895Z,16.70
2022-09-14T10:48:10.096Z,16.60
2022-09-14T10:55:33.639Z,16.60
2022-09-14T11:02:59.700Z,16.60
2022-09-14T11:10:18.490Z,16.60
2022-09-14T11:17:46.904Z,16.60
2022-09-14T11:25:03.390Z,16.60
2022-09-14T11:32:21.989Z,16.70
2022-09-14T11:39:40.194Z,16.80
2022-09-14T11:46:46.749Z,16.90
2022-09-14T11:53:47.866Z,17.00
2022-09-14T12:00:51.452Z,17.20
2022-09-14T12:08:05.278Z,17.50
2022-09-14T12:15:22.679Z,17.70
2022-09-14T12:22:37.932Z,17.90
2022-09-14T12:29:38.453Z,18.00
2022-09-14T12:36:38.751Z,18.00
2022-09-14T12:43:41.959Z,17.80
2022-09-14T12:50:42.361Z,17.80
2022-09-14T12:58:12.216Z,17.70
2022-09-14T13:05:16.958Z,17.60
2022-09-14T13:12:34.373Z,17.50
2022-09-14T13:19:34.662Z,17.50
2022-09-14T13:26:35.011Z,17.50
2022-09-14T13:33:36.570Z,17.50
2022-09-14T13:40:37.592Z,17.40
2022-09-14T13:47:39.059Z,17.30
2022-09-14T13:54:39.157Z,17.00
2022-09-14T14:01:52.553Z,16.80
2022-09-14T14:09:04.051Z,16.60
2022-09-14T14:16:17.651Z,16.70
2022-09-14T14:23:22.599Z,16.70
2022-09-14T14:30:23.772Z,16.70
2022-09-14T14:37:23.899Z,16.60
2022-09-14T14:44:28.145Z,16.40
2022-09-14T14:51:28.343Z,16.40
2022-09-14T14:58:29.148Z,16.50
2022-09-14T15:05:29.508Z,16.40
2022-09-14T15:12:31.209Z,16.40
2022-09-14T15:19:31.597Z,16.40
2022-09-14T15:26:33.251Z,16.40
2022-09-14T15:33:33.598Z,16.50
2022-09-14T15:40:34.139Z,16.80
2022-09-14T15:47:36.670Z,16.90
2022-09-14T15:54:38.897Z,16.90
2022-09-14T16:01:39.251Z,16.90
2022-09-14T16:08:41.201Z,16.80
2022-09-14T16:15:41.641Z,16.80
2022-09-14T16:22:41.972Z,16.70
2022-09-14T16:29:42.767Z,16.80
2022-09-14T16:36:44.080Z,16.80
2022-09-14T16:43:44.984Z,16.80
2022-09-14T16:50:45.365Z,16.70
2022-09-14T16:57:45.781Z,16.60
2022-09-14T17:04:46.166Z,16.50
2022-09-14T17:11:46.976Z,16.40
2022-09-14T17:18:49.523Z,16.30
2022-09-14T17:25:50.147Z,16.20
2022-09-14T17:32:50.356Z,16.20
2022-09-14T17:39:51.516Z,16.10
2022-09-14T17:46:53.346Z,16.10
2022-09-14T17:53:57.003Z,16.10
2022-09-14T18:01:23.816Z,16.10
2022-09-14T18:08:24.888Z,16.00
2022-09-14T18:15:25.470Z,15.90
2022-09-14T18:22:25.981Z,15.80
2022-09-14T18:29:27.369Z,15.80
2022-09-14T18:36:29.952Z,15.70
2022-09-14T18:43:30.285Z,15.60
2022-09-14T18:50:30.941Z,15.40
2022-09-14T18:57:31.081Z,15.40
2022-09-14T19:04:31.679Z,15.30
2022-09-14T19:11:32.769Z,15.30
2022-09-14T19:18:34.428Z,15.20
2022-09-14T19:25:39.787Z,15.10
2022-09-14T19:32:39.997Z,15.00
2022-09-14T19:39:42.230Z,14.90
2022-09-14T19:46:43.061Z,14.90
2022-09-14T19:53:45.811Z,14.80
2022-09-14T20:00:46.365Z,14.80
2022-09-14T20:07:47.755Z,14.80
2022-09-14T20:14:48.530Z,14.80
2022-09-14T20:21:50.742Z,14.90
2022-09-14T20:28:52.169Z,14.90
2022-09-14T20:36:01.177Z,14.80
2022-09-14T20:43:02.360Z,14.70
2022-09-14T20:50:03.371Z,14.80
2022-09-14T20:57:04.826Z,14.70
2022-09-14T21:04:14.463Z,14.70
2022-09-14T21:11:17.985Z,14.70
2022-09-14T21:18:20.688Z,14.70
2022-09-14T21:25:21.409Z,14.70
2022-09-14T21:32:22.200Z,14.70
2022-09-14T21:39:25.083Z,14.60
2022-09-14T21:46:26.337Z,14.60
2022-09-14T21:53:26.833Z,14.60
2022-09-14T22:00:30.971Z,14.60
2022-09-14T22:07:32.063Z,14.60
2022-09-14T22:14:33.091Z,14.60
2022-09-14T22:21:36.080Z,14.60
2022-09-14T22:28:39.956Z,14.50
2022-09-14T22:35:46.310Z,14.50
2022-09-14T22:42:47.474Z,14.40
2022-09-14T22:49:47.910Z,14.40
2022-09-14T22:56:48.934Z,14.30
2022-09-14T23:03:54.504Z,14.30
2022-09-14T23:10:55.826Z,14.30
2022-09-14T23:17:56.522Z,14.20
2022-09-14T23:24:56.561Z,14.20
2022-09-14T23:31:57.510Z,14.20
2022-09-14T23:38:58.399Z,14.10
2022-09-14T23:45:58.743Z,14.00
2022-09-14T23:52:59.057Z,14.00
2022-09-14T23:59:59.844Z,14.00
